Time;durP1;ratioP1;P1;durP2;ratioP2;P2;SDS_P1;SDS_P2;PMS_P1;PMS_P2;Temp;Humidity;BMP_temperature;BMP_pressure;BME280_temperature;BME280_humidity;BME280_pressure;Samples;Min_cycle;Max_cycle;Signal;HPM_P1;HPM_P2
2023/07/27 00:00:00;;;;;;;2.55;2.17;;;19.40;99.90;;;;;;5058017;28;20027;-80
2023/07/27 00:02:26;;;;;;;0.73;0.73;;;19.20;99.90;;;;;;5058294;28;20017;-75
2023/07/27 00:04:52;;;;;;;2.53;2.40;;;19.80;99.90;;;;;;5057621;28;20082;-74
2023/07/27 00:07:18;;;;;;;0.10;0.10;;;19.90;99.90;;;;;;5058566;28;20074;-77
2023/07/27 00:09:43;;;;;;;0.10;0.10;;;20.10;99.90;;;;;;5058584;28;20111;-73
2023/07/27 00:12:09;;;;;;;0.10;0.10;;;20.00;99.90;;;;;;5058212;28;20021;-76
2023/07/27 00:14:35;;;;;;;0.10;0.10;;;20.10;99.90;;;;;;5058262;28;20036;-79
2023/07/27 00:17:01;;;;;;;0.10;0.10;;;20.00;99.90;;;;;;5058373;28;20667;-74
2023/07/27 00:19:27;;;;;;;0.10;0.10;;;20.00;99.90;;;;;;5058320;28;20024;-77
2023/07/27 00:21:52;;;;;;;1.45;1.45;;;20.00;99.90;;;;;;5058280;28;20557;-74
2023/07/27 00:24:18;;;;;;;0.10;0.10;;;19.90;99.90;;;;;;5058486;28;20654;-75
2023/07/27 00:26:44;;;;;;;0.10;0.10;;;19.60;99.90;;;;;;5058482;28;20020;-74
2023/07/27 00:29:10;;;;;;;0.10;0.10;;;19.60;99.90;;;;;;5057137;28;20105;-81
2023/07/27 00:31:36;;;;;;;0.57;0.57;;;19.20;99.90;;;;;;5058612;28;20059;-77
2023/07/27 00:34:01;;;;;;;0.20;0.20;;;19.00;99.90;;;;;;5056724;28;20690;-82
2023/07/27 00:36:27;;;;;;;0.10;0.10;;;19.30;99.90;;;;;;5058306;28;20446;-74
2023/07/27 00:38:53;;;;;;;0.52;0.52;;;18.70;99.90;;;;;;5059079;28;20506;-75
2023/07/27 00:41:19;;;;;;;0.10;0.10;;;18.40;99.90;;;;;;5058253;28;20591;-77
2023/07/27 00:43:45;;;;;;;0.10;0.10;;;17.90;99.90;;;;;;5057864;28;20701;-75
2023/07/27 00:46:11;;;;;;;0.10;0.10;;;17.60;99.90;;;;;;5058177;28;20593;-76
2023/07/27 00:48:39;;;;;;;0.10;0.10;;;17.00;99.90;;;;;;5058172;28;20016;-74
2023/07/27 00:51:09;;;;;;;0.10;0.10;;;17.10;99.90;;;;;;5057845;28;20731;-74
2023/07/27 00:53:35;;;;;;;0.10;0.10;;;;;;;;;;5058118;28;20094;-75
2023/07/27 00:56:02;;;;;;;0.10;0.10;;;17.30;99.90;;;;;;5057980;28;20016;-74
2023/07/27 00:58:28;;;;;;;0.10;0.10;;;18.00;99.90;;;;;;5057770;28;20736;-74
2023/07/27 01:00:56;;;;;;;0.10;0.10;;;18.60;99.90;;;;;;5058003;28;20021;-76
2023/07/27 01:03:22;;;;;;;0.10;0.10;;;19.00;99.90;;;;;;5055899;28;20032;-74
2023/07/27 01:05:48;;;;;;;0.10;0.10;;;19.40;99.90;;;;;;5057536;28;20119;-74
2023/07/27 01:08:14;;;;;;;0.10;0.10;;;19.60;99.90;;;;;;5057887;28;20021;-77
2023/07/27 01:10:49;;;;;;;0.10;0.10;;;18.50;99.90;;;;;;5056443;28;20646;-74
2023/07/27 01:13:26;;;;;;;0.10;0.10;;;19.80;99.90;;;;;;5057664;28;20516;-76
2023/07/27 01:16:08;;;;;;;0.10;0.10;;;19.60;99.90;;;;;;5057553;28;20036;-75
2023/07/27 01:18:55;;;;;;;0.10;0.10;;;18.90;99.90;;;;;;5060011;28;20077;-77
2023/07/27 01:21:32;;;;;;;0.10;0.10;;;18.10;99.90;;;;;;5043435;28;20023;-74
2023/07/27 01:24:09;;;;;;;0.03;0.03;;;17.80;99.90;;;;;;5061488;28;20138;-76
2023/07/27 01:26:56;;;;;;;0.10;0.10;;;17.80;99.90;;;;;;5061373;28;20020;-82
2023/07/27 01:30:09;;;;;;;0.10;0.10;;;18.20;99.90;;;;;;5061347;28;20017;-75
2023/07/27 01:32:38;;;;;;;0.10;0.10;;;17.90;99.90;;;;;;5043208;28;20032;-74
2023/07/27 01:35:12;;;;;;;0.10;0.10;;;17.90;99.90;;;;;;5060732;28;20211;-73
2023/07/27 01:37:41;;;;;;;0.10;0.10;;;17.60;99.90;;;;;;5060887;28;20059;-76
2023/07/27 01:40:09;;;;;;;0.10;0.10;;;17.60;99.90;;;;;;5060874;28;20021;-74
2023/07/27 01:42:36;;;;;;;0.10;0.10;;;16.70;99.90;;;;;;5060479;28;20397;-73
2023/07/27 01:45:02;;;;;;;0.55;0.55;;;15.60;99.90;;;;;;5061427;28;20028;-75
2023/07/27 01:47:29;;;;;;;0.10;0.10;;;17.10;99.90;;;;;;5043097;28;20028;-76
2023/07/27 01:49:56;;;;;;;0.10;0.10;;;17.00;99.90;;;;;;5061132;28;20027;-77
2023/07/27 01:52:24;;;;;;;0.10;0.10;;;17.00;99.90;;;;;;5043450;28;20510;-75
2023/07/27 01:54:50;;;;;;;0.10;0.10;;;17.10;99.90;;;;;;5060815;28;20489;-73
2023/07/27 01:57:17;;;;;;;0.10;0.10;;;17.30;99.90;;;;;;5060510;28;20261;-73
2023/07/27 01:59:44;;;;;;;0.10;0.10;;;17.40;99.90;;;;;;5060931;28;20473;-75
2023/07/27 02:02:13;;;;;;;0.10;0.10;;;18.70;99.90;;;;;;5043119;28;20028;-73
2023/07/27 02:04:39;;;;;;;0.10;0.10;;;17.40;99.90;;;;;;5060703;28;20033;-76
2023/07/27 02:07:05;;;;;;;0.10;0.10;;;17.40;99.90;;;;;;5060631;28;20012;-76
2023/07/27 02:09:31;;;;;;;0.45;0.45;;;17.90;99.90;;;;;;5060618;28;20025;-74
2023/07/27 02:12:10;;;;;;;0.10;0.10;;;18.10;99.90;;;;;;5060294;28;20024;-76
2023/07/27 02:15:15;;;;;;;0.10;0.10;;;17.90;99.90;;;;;;5060540;28;20024;-74
2023/07/27 02:17:59;;;;;;;0.13;0.13;;;18.50;99.90;;;;;;5005397;28;20028;-76
2023/07/27 02:20:28;;;;;;;0.10;0.10;;;18.20;99.90;;;;;;4997614;28;20037;-74
2023/07/27 02:22:56;;;;;;;0.40;0.40;;;18.20;99.90;;;;;;4997559;28;20071;-80
2023/07/27 02:25:22;;;;;;;0.35;0.32;;;18.40;99.90;;;;;;4997489;28;20101;-76
2023/07/27 02:27:48;;;;;;;0.10;0.10;;;18.50;99.90;;;;;;4997120;28;20144;-73
2023/07/27 02:30:13;;;;;;;0.38;0.38;;;18.70;99.90;;;;;;4997564;28;20097;-76
2023/07/27 02:32:39;;;;;;;0.32;0.32;;;18.60;99.90;;;;;;4997232;28;20050;-75
2023/07/27 02:35:05;;;;;;;0.10;0.10;;;18.00;99.90;;;;;;4980971;28;20038;-74
2023/07/27 02:37:31;;;;;;;0.10;0.10;;;17.20;99.90;;;;;;4997666;28;20666;-77
2023/07/27 02:39:57;;;;;;;0.10;0.10;;;16.70;99.90;;;;;;4981064;28;20030;-75
2023/07/27 02:42:23;;;;;;;0.10;0.10;;;16.40;99.90;;;;;;4997149;28;20551;-74
2023/07/27 02:44:48;;;;;;;0.80;0.80;;;16.00;99.90;;;;;;4997165;28;20088;-76
2023/07/27 02:47:15;;;;;;;0.10;0.10;;;;;;;;;;5004152;28;20113;-79
2023/07/27 02:49:41;;;;;;;0.10;0.10;;;15.60;99.90;;;;;;5016615;28;20108;-78
2023/07/27 02:52:07;;;;;;;0.85;0.82;;;15.70;99.90;;;;;;5046365;28;20755;-74
2023/07/27 02:54:32;;;;;;;0.10;0.10;;;15.70;99.90;;;;;;5059850;28;20257;-75
2023/07/27 02:56:58;;;;;;;0.10;0.10;;;16.30;99.90;;;;;;5059380;28;20250;-74
2023/07/27 02:59:24;;;;;;;0.25;0.25;;;17.40;99.90;;;;;;5059652;28;20058;-77
2023/07/27 03:01:51;;;;;;;0.10;0.10;;;17.80;99.90;;;;;;5059389;28;20028;-76
2023/07/27 03:04:16;;;;;;;0.10;0.10;;;18.30;99.90;;;;;;5059902;28;20060;-75
2023/07/27 03:06:43;;;;;;;0.10;0.10;;;18.70;99.90;;;;;;5041693;28;20713;-73
2023/07/27 03:09:09;;;;;;;0.10;0.10;;;19.10;99.90;;;;;;5060047;28;20021;-77
2023/07/27 03:11:38;;;;;;;0.10;0.10;;;19.40;99.90;;;;;;5041604;28;20044;-73
2023/07/27 03:14:04;;;;;;;0.10;0.10;;;19.60;99.90;;;;;;5059216;28;20075;-74
2023/07/27 03:16:30;;;;;;;0.10;0.10;;;19.70;99.90;;;;;;5059138;28;20040;-74
2023/07/27 03:18:56;;;;;;;0.10;0.10;;;19.50;99.90;;;;;;5040992;28;20616;-74
2023/07/27 03:21:22;;;;;;;0.10;0.10;;;19.50;99.90;;;;;;5059110;28;20069;-73
2023/07/27 03:23:49;;;;;;;0.10;0.10;;;19.20;99.90;;;;;;5041280;28;20024;-77
2023/07/27 03:26:15;;;;;;;0.10;0.10;;;19.10;99.90;;;;;;5040900;28;20024;-82
2023/07/27 03:28:42;;;;;;;0.10;0.10;;;19.20;99.90;;;;;;5059006;28;20264;-75
2023/07/27 03:31:15;;;;;;;0.20;0.20;;;19.60;99.90;;;;;;5059185;28;20009;-74
2023/07/27 03:33:41;;;;;;;0.10;0.10;;;19.70;99.90;;;;;;5040045;28;20078;-78
2023/07/27 03:36:06;;;;;;;0.10;0.10;;;19.80;99.90;;;;;;5041068;28;20307;-76
2023/07/27 03:38:32;;;;;;;0.10;0.10;;;19.90;99.90;;;;;;5058813;28;20020;-73
2023/07/27 03:40:58;;;;;;;0.10;0.10;;;20.00;99.90;;;;;;5040346;28;20028;-74
2023/07/27 03:43:24;;;;;;;0.20;0.20;;;20.10;99.90;;;;;;5058221;28;20046;-80
2023/07/27 03:45:53;;;;;;;0.10;0.10;;;19.80;99.90;;;;;;5040232;28;20029;-77
2023/07/27 03:48:19;;;;;;;0.10;0.10;;;19.10;99.90;;;;;;5058758;28;20032;-75
2023/07/27 03:50:45;;;;;;;0.20;0.20;;;18.70;99.90;;;;;;5058564;28;20490;-77
2023/07/27 03:53:11;;;;;;;0.10;0.10;;;18.60;99.90;;;;;;5058748;28;20028;-74
2023/07/27 03:55:37;;;;;;;0.10;0.10;;;;;;;;;;5058670;28;20575;-74
2023/07/27 03:58:03;;;;;;;0.10;0.10;;;19.10;99.90;;;;;;5058462;28;20265;-76
2023/07/27 04:00:29;;;;;;;0.10;0.10;;;19.30;99.90;;;;;;5058351;28;20706;-76
2023/07/27 04:02:54;;;;;;;0.08;0.08;;;19.30;99.90;;;;;;5058119;28;20077;-74
2023/07/27 04:05:20;;;;;;;0.10;0.10;;;19.30;99.90;;;;;;5058316;28;20491;-76
2023/07/27 04:07:51;;;;;;;0.10;0.10;;;19.30;99.90;;;;;;5058040;28;20630;-74
2023/07/27 04:10:17;;;;;;;0.20;0.20;;;19.50;99.90;;;;;;5058372;28;20094;-77
2023/07/27 04:12:43;;;;;;;0.10;0.10;;;19.10;99.90;;;;;;5058262;28;20719;-77
2023/07/27 04:15:10;;;;;;;0.10;0.10;;;18.10;99.90;;;;;;5040366;28;20036;-77
2023/07/27 04:17:35;;;;;;;0.10;0.10;;;19.00;99.90;;;;;;5057577;28;20221;-75
2023/07/27 04:20:01;;;;;;;0.10;0.10;;;19.20;99.90;;;;;;5057724;28;20533;-73
2023/07/27 04:22:27;;;;;;;0.10;0.10;;;19.40;99.90;;;;;;5058369;28;20738;-74
2023/07/27 04:24:53;;;;;;;0.10;0.10;;;19.30;99.90;;;;;;5058329;28;20575;-74
2023/07/27 04:27:19;;;;;;;0.10;0.10;;;19.80;99.90;;;;;;5058224;28;20074;-77
2023/07/27 04:29:45;;;;;;;0.10;0.10;;;19.30;99.90;;;;;;5057863;28;20050;-75
2023/07/27 04:32:10;;;;;;;0.10;0.10;;;18.60;99.90;;;;;;5057478;28;20105;-77
2023/07/27 04:34:36;;;;;;;0.10;0.10;;;18.80;99.90;;;;;;5057647;28;20618;-75
2023/07/27 04:37:03;;;;;;;0.10;0.10;;;18.90;99.90;;;;;;5058116;28;20020;-77
2023/07/27 04:39:29;;;;;;;0.30;0.30;;;18.80;99.90;;;;;;5057703;28;20020;-74
2023/07/27 04:41:55;;;;;;;0.10;0.10;;;18.80;99.90;;;;;;5058023;28;20036;-76
2023/07/27 04:44:20;;;;;;;0.10;0.10;;;19.20;99.90;;;;;;5058203;28;20021;-79
2023/07/27 04:46:46;;;;;;;0.10;0.10;;;19.60;99.90;;;;;;5057654;28;20017;-75
2023/07/27 04:49:12;;;;;;;0.10;0.10;;;19.60;99.90;;;;;;5057933;28;20619;-76
2023/07/27 04:51:38;;;;;;;0.10;0.10;;;19.30;99.90;;;;;;5057646;28;20731;-75
2023/07/27 04:54:04;;;;;;;0.10;0.10;;;;;;;;;;5057994;28;20029;-76
2023/07/27 04:56:30;;;;;;;0.10;0.10;;;19.70;99.90;;;;;;5056510;28;20078;-75
2023/07/27 04:58:56;;;;;;;0.10;0.10;;;19.70;99.90;;;;;;5056523;28;20024;-77
2023/07/27 05:01:21;;;;;;;0.10;0.10;;;19.70;99.90;;;;;;5058027;28;20693;-77
2023/07/27 05:03:47;;;;;;;0.10;0.10;;;20.80;99.90;;;;;;5057759;28;20016;-73
2023/07/27 05:06:13;;;;;;;0.10;0.10;;;19.30;99.90;;;;;;5057486;28;20040;-73
2023/07/27 05:08:39;;;;;;;0.10;0.10;;;18.60;99.90;;;;;;5057505;28;20104;-78
2023/07/27 05:11:08;;;;;;;0.10;0.10;;;18.10;99.90;;;;;;5057215;28;20607;-75
2023/07/27 05:13:34;;;;;;;0.10;0.10;;;17.70;99.90;;;;;;5057145;28;20055;-73
2023/07/27 05:16:01;;;;;;;0.10;0.10;;;17.40;99.90;;;;;;5057275;28;20031;-76
2023/07/27 05:18:27;;;;;;;0.10;0.10;;;16.70;99.90;;;;;;5057511;28;20033;-76
2023/07/27 05:20:54;;;;;;;0.47;0.47;;;16.20;99.90;;;;;;5057141;28;20697;-73
2023/07/27 05:23:19;;;;;;;0.20;0.20;;;16.10;99.90;;;;;;5057139;28;20024;-73
2023/07/27 05:25:48;;;;;;;0.10;0.10;;;15.80;99.90;;;;;;5057516;28;20024;-79
2023/07/27 05:28:16;;;;;;;0.10;0.10;;;15.70;99.90;;;;;;5057657;28;20032;-80
2023/07/27 05:30:42;;;;;;;0.10;0.10;;;15.50;99.90;;;;;;5057620;28;20186;-76
2023/07/27 05:33:08;;;;;;;0.10;0.10;;;15.40;99.90;;;;;;5057566;28;20679;-80
2023/07/27 05:35:34;;;;;;;0.10;0.10;;;15.20;99.90;;;;;;5057271;28;20029;-75
2023/07/27 05:38:00;;;;;;;0.10;0.10;;;15.10;99.90;;;;;;5057230;28;20678;-76
2023/07/27 05:40:26;;;;;;;0.10;0.10;;;15.10;99.90;;;;;;5057579;28;20031;-76
2023/07/27 05:42:51;;;;;;;0.10;0.10;;;15.00;99.90;;;;;;5057102;28;20028;-79
2023/07/27 05:45:17;;;;;;;0.10;0.10;;;15.00;99.90;;;;;;5057291;28;20008;-79
2023/07/27 05:47:43;;;;;;;0.10;0.10;;;14.60;99.90;;;;;;5055713;28;20769;-76
2023/07/27 05:50:09;;;;;;;0.10;0.10;;;15.00;99.90;;;;;;5057083;28;20028;-78
2023/07/27 05:52:35;;;;;;;0.20;0.20;;;15.10;99.90;;;;;;5055992;28;20035;-73
2023/07/27 05:55:01;;;;;;;0.10;0.10;;;15.20;99.90;;;;;;5057201;28;20029;-74
2023/07/27 05:57:27;;;;;;;0.10;0.10;;;15.30;99.90;;;;;;5056264;28;20045;-75
2023/07/27 05:59:53;;;;;;;0.20;0.20;;;15.40;99.90;;;;;;5055992;28;20091;-77
2023/07/27 06:02:18;;;;;;;0.10;0.10;;;15.50;99.90;;;;;;5056859;28;20029;-75
2023/07/27 06:04:44;;;;;;;3.50;2.08;;;15.80;99.90;;;;;;5059432;28;20662;-74
2023/07/27 06:07:10;;;;;;;0.10;0.10;;;15.70;99.90;;;;;;5060056;28;20182;-74
2023/07/27 06:09:36;;;;;;;0.10;0.10;;;15.90;99.90;;;;;;5060223;28;20020;-73
2023/07/27 06:12:11;;;;;;;0.65;0.65;;;15.60;99.90;;;;;;5060765;28;20028;-77
2023/07/27 06:14:38;;;;;;;0.10;0.10;;;15.70;99.90;;;;;;5059273;28;20033;-74
2023/07/27 06:17:04;;;;;;;0.10;0.10;;;15.70;99.90;;;;;;5059351;28;20633;-77
2023/07/27 06:19:29;;;;;;;0.10;0.10;;;15.90;99.90;;;;;;5060045;28;20020;-76
2023/07/27 06:21:55;;;;;;;0.10;0.10;;;16.10;99.90;;;;;;5059946;28;20474;-74
2023/07/27 06:24:21;;;;;;;0.10;0.10;;;16.30;99.90;;;;;;5059607;28;20025;-73
2023/07/27 06:26:46;;;;;;;0.10;0.10;;;16.50;99.90;;;;;;5059607;28;20719;-73
2023/07/27 06:29:12;;;;;;;0.10;0.10;;;16.70;99.90;;;;;;5060054;28;20019;-82
2023/07/27 06:31:38;;;;;;;0.10;0.10;;;16.70;99.90;;;;;;5059757;28;20130;-83
2023/07/27 06:34:04;;;;;;;0.40;0.40;;;16.60;99.90;;;;;;5059290;28;20056;-75
2023/07/27 06:36:29;;;;;;;0.10;0.10;;;16.60;99.90;;;;;;5059248;28;20029;-75
2023/07/27 06:38:55;;;;;;;0.10;0.10;;;16.40;99.90;;;;;;5059319;28;20032;-76
2023/07/27 06:41:25;;;;;;;0.10;0.10;;;16.30;99.90;;;;;;5059239;28;20560;-73
2023/07/27 06:43:52;;;;;;;0.10;0.10;;;16.20;99.90;;;;;;5059400;28;20074;-72
2023/07/27 06:46:18;;;;;;;0.10;0.10;;;16.20;99.90;;;;;;5059351;28;20423;-73
2023/07/27 06:48:46;;;;;;;0.20;0.20;;;16.20;99.90;;;;;;5058737;28;20051;-80
2023/07/27 06:51:14;;;;;;;0.10;0.10;;;16.10;99.90;;;;;;5059114;28;20114;-73
2023/07/27 06:53:40;;;;;;;0.10;0.10;;;16.00;99.90;;;;;;5058844;28;20031;-73
2023/07/27 06:56:13;;;;;;;0.10;0.10;;;16.10;99.90;;;;;;5058626;28;20032;-75
2023/07/27 06:58:39;;;;;;;0.10;0.10;;;16.20;99.90;;;;;;5058099;28;20020;-75
2023/07/27 07:01:04;;;;;;;0.10;0.10;;;16.40;99.90;;;;;;5058714;28;20025;-72
2023/07/27 07:03:30;;;;;;;0.10;0.10;;;17.00;99.90;;;;;;5059307;28;20016;-76
2023/07/27 07:05:56;;;;;;;0.10;0.10;;;17.80;99.90;;;;;;5059541;28;20675;-75
2023/07/27 07:08:22;;;;;;;0.10;0.10;;;18.50;99.90;;;;;;5059308;28;20681;-75
2023/07/27 07:10:48;;;;;;;0.10;0.10;;;19.20;99.90;;;;;;5058938;28;20024;-75
2023/07/27 07:13:13;;;;;;;0.10;0.10;;;19.70;99.90;;;;;;5058706;28;20090;-75
2023/07/27 07:15:39;;;;;;;0.10;0.10;;;19.50;99.90;;;;;;5058210;28;20029;-73
2023/07/27 07:18:05;;;;;;;0.10;0.10;;;19.50;99.90;;;;;;5058120;28;20024;-74
2023/07/27 07:20:31;;;;;;;0.10;0.10;;;20.00;99.90;;;;;;5058941;28;20059;-79
2023/07/27 07:22:57;;;;;;;0.10;0.10;;;20.00;99.90;;;;;;5057350;28;20016;-74
2023/07/27 07:25:23;;;;;;;0.10;0.10;;;20.50;99.90;;;;;;5059107;28;20032;-74
2023/07/27 07:27:48;;;;;;;0.10;0.10;;;20.50;99.90;;;;;;5059139;28;20012;-73
2023/07/27 07:30:14;;;;;;;0.10;0.10;;;20.50;99.90;;;;;;5058573;28;20016;-85
2023/07/27 07:32:40;;;;;;;0.10;0.10;;;20.30;99.90;;;;;;5058448;28;20044;-75
2023/07/27 07:35:06;;;;;;;0.10;0.10;;;20.30;99.90;;;;;;5058047;28;20663;-74
2023/07/27 07:37:32;;;;;;;0.10;0.10;;;20.20;99.90;;;;;;5057889;28;20573;-76
2023/07/27 07:39:57;;;;;;;0.10;0.10;;;20.20;99.90;;;;;;5058365;28;20069;-73
2023/07/27 07:42:23;;;;;;;0.10;0.10;;;20.10;99.90;;;;;;5057995;28;20220;-73
2023/07/27 07:44:49;;;;;;;0.10;0.10;;;20.20;99.90;;;;;;5058328;28;20020;-72
2023/07/27 07:47:15;;;;;;;0.10;0.10;;;19.80;99.90;;;;;;5057516;28;20119;-82
2023/07/27 07:49:41;;;;;;;0.10;0.10;;;20.00;99.90;;;;;;5057783;28;20025;-81
2023/07/27 07:52:07;;;;;;;0.10;0.10;;;19.90;99.90;;;;;;5057006;28;20674;-80
2023/07/27 07:54:32;;;;;;;0.10;0.10;;;19.50;99.90;;;;;;5056935;28;20032;-74
2023/07/27 07:56:59;;;;;;;0.10;0.10;;;19.90;99.90;;;;;;5057068;28;20025;-73
2023/07/27 07:59:25;;;;;;;0.20;0.20;;;20.30;99.90;;;;;;5057641;28;20047;-73
2023/07/27 08:01:51;;;;;;;0.10;0.10;;;20.30;99.90;;;;;;5058355;28;20158;-77
2023/07/27 08:04:18;;;;;;;0.10;0.10;;;20.40;99.90;;;;;;5057522;28;20115;-74
2023/07/27 08:06:44;;;;;;;0.10;0.10;;;20.90;99.90;;;;;;5057712;28;20079;-74
2023/07/27 08:09:10;;;;;;;0.10;0.10;;;21.20;99.60;;;;;;5057704;28;20013;-73
2023/07/27 08:11:37;;;;;;;0.10;0.10;;;20.80;98.50;;;;;;5057807;28;20055;-74
2023/07/27 08:14:03;;;;;;;0.10;0.10;;;20.70;99.90;;;;;;5057421;28;20033;-74
2023/07/27 08:16:31;;;;;;;0.10;0.10;;;20.60;99.90;;;;;;5057796;28;20720;-78
2023/07/27 08:18:57;;;;;;;0.20;0.20;;;20.40;99.90;;;;;;5057830;28;20025;-74
2023/07/27 08:21:24;;;;;;;0.10;0.10;;;20.30;99.90;;;;;;5057711;28;20020;-76
2023/07/27 08:23:51;;;;;;;0.10;0.10;;;20.30;99.90;;;;;;5058477;28;20027;-74
2023/07/27 08:26:17;;;;;;;0.10;0.10;;;20.10;99.90;;;;;;5055997;28;20024;-75
2023/07/27 08:28:43;;;;;;;0.10;0.10;;;19.60;99.90;;;;;;5039666;28;20446;-79
2023/07/27 08:31:09;;;;;;;0.10;0.10;;;20.00;99.90;;;;;;5058487;28;20559;-76
2023/07/27 08:33:34;;;;;;;0.10;0.10;;;20.60;99.60;;;;;;5039513;28;20041;-77
2023/07/27 08:36:01;;;;;;;0.10;0.10;;;19.10;99.90;;;;;;5057435;28;20116;-77
2023/07/27 08:38:27;;;;;;;0.10;0.10;;;20.10;99.90;;;;;;5039302;28;20364;-75
2023/07/27 08:40:54;;;;;;;0.10;0.10;;;20.20;99.90;;;;;;5057630;28;20020;-74
2023/07/27 08:43:20;;;;;;;0.10;0.10;;;20.40;99.90;;;;;;5057404;28;20013;-78
2023/07/27 08:45:46;;;;;;;0.10;0.10;;;20.50;98.80;;;;;;5057965;28;20035;-76
2023/07/27 08:48:14;;;;;;;0.10;0.10;;;20.50;97.10;;;;;;5057487;28;20088;-75
2023/07/27 08:50:42;;;;;;;0.10;0.10;;;20.50;99.90;;;;;;5057171;28;20224;-79
2023/07/27 08:53:08;;;;;;;0.10;0.10;;;20.30;99.80;;;;;;5057264;28;20021;-78
2023/07/27 08:55:33;;;;;;;0.20;0.20;;;20.10;96.40;;;;;;5057181;28;20032;-77
2023/07/27 08:57:59;;;;;;;0.10;0.10;;;20.30;96.30;;;;;;5057654;28;20625;-75
2023/07/27 09:00:25;;;;;;;0.10;0.10;;;20.30;99.90;;;;;;5057152;28;20021;-75
2023/07/27 09:02:51;;;;;;;0.10;0.10;;;21.10;99.90;;;;;;5056968;28;20038;-83
2023/07/27 09:05:16;;;;;;;0.10;0.10;;;21.20;98.40;;;;;;5056992;28;20112;-75
2023/07/27 09:07:47;;;;;;;0.10;0.10;;;21.20;96.80;;;;;;5057552;28;20012;-74
2023/07/27 09:10:15;;;;;;;23.67;22.13;;;21.30;95.40;;;;;;5057156;28;20656;-74
2023/07/27 09:12:42;;;;;;;0.10;0.10;;;21.60;99.10;;;;;;5056899;28;20108;-74
2023/07/27 09:15:15;;;;;;;0.10;0.10;;;21.70;97.90;;;;;;5056980;28;20028;-74
2023/07/27 09:17:41;;;;;;;0.55;0.55;;;21.60;96.60;;;;;;5056964;28;20023;-74
2023/07/27 09:20:12;;;;;;;0.10;0.10;;;21.90;99.60;;;;;;5057305;28;20021;-74
2023/07/27 09:22:38;;;;;;;0.10;0.10;;;22.30;96.90;;;;;;5038815;28;20028;-74
2023/07/27 09:25:07;;;;;;;0.10;0.10;;;22.30;92.10;;;;;;5039027;28;20627;-74
2023/07/27 09:27:43;;;;;;;0.10;0.10;;;21.50;96.10;;;;;;5038459;28;20029;-82
2023/07/27 09:30:10;;;;;;;0.57;0.40;;;22.00;95.00;;;;;;5056865;28;20025;-73
2023/07/27 09:32:36;;;;;;;0.10;0.10;;;22.00;96.80;;;;;;5056446;28;20032;-72
2023/07/27 09:35:03;;;;;;;0.10;0.10;;;22.20;93.30;;;;;;5056763;28;20031;-74
2023/07/27 09:37:29;;;;;;;0.22;0.22;;;22.00;92.10;;;;;;5038891;28;20023;-73
2023/07/27 09:40:13;;;;;;;0.10;0.10;;;22.10;95.00;;;;;;5060161;28;20028;-74
2023/07/27 09:42:44;;;;;;;0.10;0.10;;;22.10;91.70;;;;;;5063392;28;20036;-79
2023/07/27 09:45:11;;;;;;;0.10;0.10;;;22.50;95.00;;;;;;5063036;28;20701;-75
2023/07/27 09:47:37;;;;;;;0.10;0.10;;;22.80;92.60;;;;;;5082220;28;20020;-77
2023/07/27 09:50:03;;;;;;;0.10;0.10;;;23.00;91.30;;;;;;5073512;28;20693;-81
2023/07/27 09:52:30;;;;;;;0.35;0.35;;;22.90;93.50;;;;;;5060756;28;20082;-80
2023/07/27 09:54:58;;;;;;;0.10;0.10;;;22.60;91.00;;;;;;5081254;28;20032;-79
2023/07/27 09:57:25;;;;;;;0.10;0.10;;;22.30;92.60;;;;;;5064359;28;20028;-79
2023/07/27 09:59:51;;;;;;;14.13;2.00;;;22.50;91.30;;;;;;5082891;28;20150;-74
2023/07/27 10:02:17;;;;;;;0.10;0.10;;;22.80;90.90;;;;;;5080550;28;20019;-73
2023/07/27 10:04:49;;;;;;;0.28;0.28;;;20.40;85.10;;;;;;5062233;28;20206;-77
2023/07/27 10:07:21;;;;;;;0.10;0.10;;;22.70;87.70;;;;;;5062088;28;20043;-76
2023/07/27 10:09:48;;;;;;;0.22;0.22;;;22.70;88.70;;;;;;5060566;28;20024;-76
2023/07/27 10:12:27;;;;;;;0.10;0.10;;;22.80;88.70;;;;;;5042995;28;20654;-77
2023/07/27 10:15:19;;;;;;;0.10;0.10;;;22.90;85.90;;;;;;5060480;28;20035;-77
2023/07/27 10:17:46;;;;;;;0.63;0.63;;;22.90;85.70;;;;;;5060427;28;20730;-78
2023/07/27 10:20:30;;;;;;;0.10;0.10;;;22.70;86.50;;;;;;5042651;28;20088;-77
2023/07/27 10:23:18;;;;;;;0.30;0.30;;;23.40;92.70;;;;;;5060251;28;20025;-76
2023/07/27 10:25:56;;;;;;;0.10;0.10;;;23.90;87.10;;;;;;5060429;28;20059;-77
2023/07/27 10:28:47;;;;;;;0.10;0.10;;;24.10;86.60;;;;;;5060237;28;20027;-78
2023/07/27 10:31:27;;;;;;;0.38;0.38;;;24.10;86.00;;;;;;5060342;28;20029;-78
2023/07/27 10:33:59;;;;;;;2.60;2.50;;;23.80;92.40;;;;;;5060075;28;20069;-78
2023/07/27 10:36:58;;;;;;;0.10;0.10;;;23.80;92.10;;;;;;5042053;28;20056;-80
2023/07/27 10:39:37;;;;;;;0.10;0.10;;;24.00;89.80;;;;;;5041968;28;20051;-78
2023/07/27 10:42:05;;;;;;;0.10;0.10;;;24.40;90.30;;;;;;5060457;28;20264;-80
2023/07/27 10:44:51;;;;;;;0.10;0.10;;;24.60;86.60;;;;;;5041983;28;20715;-79
2023/07/27 10:47:24;;;;;;;0.10;0.10;;;24.60;81.80;;;;;;5059514;28;20663;-78
2023/07/27 10:49:54;;;;;;;;;;;24.60;82.30;;;;;;5041792;28;20024;-76
2023/07/27 10:52:33;;;;;;;0.10;0.10;;;24.50;81.30;;;;;;5059754;28;19904;-78
2023/07/27 10:55:00;;;;;;;0.00;0.00;;;24.50;79.30;;;;;;5058978;28;20606;-76
2023/07/27 10:57:28;;;;;;;0.00;0.00;;;24.40;79.50;;;;;;5059288;28;20028;-78
2023/07/27 10:59:54;;;;;;;0.00;0.00;;;24.20;81.20;;;;;;5041641;28;20039;-82
2023/07/27 11:02:24;;;;;;;0.10;0.10;;;24.00;80.30;;;;;;5041673;28;20025;-78
2023/07/27 11:04:51;;;;;;;0.10;0.10;;;23.90;81.80;;;;;;5059083;28;20036;-76
2023/07/27 11:07:34;;;;;;;0.28;0.28;;;24.00;82.80;;;;;;5059538;28;20017;-76
2023/07/27 11:10:09;;;;;;;0.08;0.08;;;23.50;84.10;;;;;;5059178;28;20533;-78
2023/07/27 11:12:51;;;;;;;0.10;0.10;;;23.80;82.90;;;;;;5041033;28;20029;-77
2023/07/27 11:15:29;;;;;;;0.00;0.00;;;24.20;84.00;;;;;;5058788;28;20039;-76
2023/07/27 11:17:59;;;;;;;0.10;0.10;;;24.20;83.50;;;;;;5059041;28;20599;-81
2023/07/27 11:20:28;;;;;;;0.00;0.00;;;23.70;80.90;;;;;;5058597;28;20028;-79
2023/07/27 11:22:56;;;;;;;0.10;0.10;;;23.70;85.00;;;;;;5058276;28;20035;-77
2023/07/27 11:25:23;;;;;;;0.10;0.10;;;23.60;81.20;;;;;;5059303;28;20020;-77
2023/07/27 11:27:49;;;;;;;0.10;0.10;;;23.70;80.60;;;;;;5059217;28;20016;-77
2023/07/27 11:30:17;;;;;;;0.10;0.10;;;23.90;79.90;;;;;;5059125;28;20304;-82
2023/07/27 11:32:57;;;;;;;0.00;0.00;;;24.40;83.60;;;;;;5058743;28;20036;-76
2023/07/27 11:35:23;;;;;;;0.10;0.10;;;25.00;78.70;;;;;;5058867;28;20098;-78
2023/07/27 11:37:52;;;;;;;0.10;0.10;;;25.20;78.10;;;;;;5057999;28;20025;-77
2023/07/27 11:40:19;;;;;;;0.10;0.10;;;26.90;78.60;;;;;;5058805;28;20024;-78
2023/07/27 11:42:45;;;;;;;0.00;0.00;;;25.90;76.00;;;;;;5058947;28;20047;-79
2023/07/27 11:45:12;;;;;;;0.00;0.00;;;26.00;76.60;;;;;;5058173;28;20123;-78
2023/07/27 11:47:38;;;;;;;0.08;0.08;;;26.70;75.50;;;;;;5058906;28;20036;-78
2023/07/27 11:50:06;;;;;;;0.00;0.00;;;26.80;73.70;;;;;;5058906;28;20028;-79
2023/07/27 11:52:33;;;;;;;0.00;0.00;;;27.00;73.90;;;;;;5058613;28;20044;-78
2023/07/27 11:55:01;;;;;;;0.00;0.00;;;26.80;74.10;;;;;;5040468;28;20032;-75
2023/07/27 11:57:27;;;;;;;0.17;0.10;;;27.10;74.20;;;;;;5058262;28;20008;-76
2023/07/27 12:00:12;;;;;;;0.00;0.00;;;27.50;72.60;;;;;;5058006;28;20012;-79
2023/07/27 12:02:38;;;;;;;0.25;0.25;;;27.20;72.30;;;;;;5057148;28;20027;-80
2023/07/27 12:05:05;;;;;;;0.00;0.00;;;27.00;72.40;;;;;;5057929;28;20035;-81
2023/07/27 12:07:34;;;;;;;0.25;0.25;;;26.70;73.70;;;;;;5057686;28;20024;-78
2023/07/27 12:10:03;;;;;;;0.03;0.03;;;26.70;73.70;;;;;;5058071;28;20020;-81
2023/07/27 12:12:28;;;;;;;0.10;0.10;;;27.40;71.90;;;;;;5058356;28;20055;-79
2023/07/27 12:14:57;;;;;;;0.52;0.40;;;27.10;72.90;;;;;;5059000;28;20055;-77
2023/07/27 12:17:26;;;;;;;0.05;0.05;;;27.30;73.50;;;;;;5040825;28;20841;-83
2023/07/27 12:19:52;;;;;;;0.00;0.00;;;27.60;71.60;;;;;;5058922;28;20013;-78
2023/07/27 12:22:24;;;;;;;0.10;0.10;;;27.80;71.40;;;;;;5058680;28;20020;-76
2023/07/27 12:24:49;;;;;;;0.75;0.20;;;28.00;72.40;;;;;;5058804;28;20021;-88
2023/07/27 12:27:15;;;;;;;0.20;0.20;;;28.50;70.80;;;;;;5040780;28;20082;-78
2023/07/27 12:29:56;;;;;;;0.30;0.30;;;29.20;69.10;;;;;;5040529;28;20025;-78
2023/07/27 12:32:27;;;;;;;0.10;0.10;;;30.10;69.00;;;;;;5040465;22;20424;-79
2023/07/27 12:34:53;;;;;;;0.10;0.10;;;29.90;68.00;;;;;;5019673;28;20045;-84
2023/07/27 12:37:44;;;;;;;0.10;0.10;;;29.20;68.40;;;;;;5020622;28;20741;-78
2023/07/27 12:40:24;;;;;;;0.10;0.10;;;29.80;66.80;;;;;;5020753;28;20023;-79
2023/07/27 12:42:49;;;;;;;0.10;0.10;;;30.30;68.10;;;;;;5021659;28;20024;-79
2023/07/27 12:45:19;;;;;;;0.10;0.10;;;30.40;64.90;;;;;;5037951;28;20021;-79
2023/07/27 12:47:55;;;;;;;0.43;0.20;;;30.40;64.60;;;;;;5020200;28;20032;-83
2023/07/27 12:50:28;;;;;;;0.10;0.10;;;30.20;64.80;;;;;;5019715;28;20041;-82
2023/07/27 12:52:54;;;;;;;0.10;0.10;;;30.10;64.90;;;;;;5019949;28;20108;-78